KBIE/BIE METAR and TAF weather

Enter ICAO airport designator
Station Type Date Time Source
KBIE METAR 2018/10/21 05:35 UTC NOAA

KBIE 210535Z AUTO 00000KT 10SM CLR 02/M01 A3037 RMK AO2 T00151013


Station Type Date Time Source
KBIE Decoded METAR 2018/10/21 05:35 UTC NOAA

Beatrice Municipal, NE, United States (KBIE) 40-18N 096-45W
Oct 21, 2018 - 01:35 AM EDT / 2018.10.21 0535 UTC
Wind: Calm:0
Visibility: 10 mile(s):0
Sky conditions: clear
Temperature: 34.7 F (1.5 C)
Dew Point: 29.7 F (-1.3 C)
Relative Humidity: 81%
Pressure (altimeter): 30.37 in. Hg (1028 hPa)
ob: KBIE 210535Z AUTO 00000KT 10SM CLR 02/M01 A3037 RMK AO2 T00151013
cycle: 5

Station Type Date Time Source
KBIE TAF UTC NOAA

Error!


Example: see airport list